sensor_id;sensor_type;location;lat;lon;timestamp;temperature;humidity
1137;DHT22;557;48.466;7.950;2024-01-30T00:01:54;4.90;99.90
1137;DHT22;557;48.466;7.950;2024-01-30T00:04:21;4.90;99.90
1137;DHT22;557;48.466;7.950;2024-01-30T00:06:48;4.90;99.90
1137;DHT22;557;48.466;7.950;2024-01-30T00:09:14;4.90;99.90
1137;DHT22;557;48.466;7.950;2024-01-30T00:11:42;4.90;99.90
1137;DHT22;557;48.466;7.950;2024-01-30T00:14:11;4.80;99.90
1137;DHT22;557;48.466;7.950;2024-01-30T00:16:38;4.80;99.90
1137;DHT22;557;48.466;7.950;2024-01-30T00:19:04;4.70;99.90
1137;DHT22;557;48.466;7.950;2024-01-30T00:21:33;4.70;99.90
1137;DHT22;557;48.466;7.950;2024-01-30T00:24:00;4.60;99.90
1137;DHT22;557;48.466;7.950;2024-01-30T00:26:27;4.60;99.90
1137;DHT22;557;48.466;7.950;2024-01-30T00:28:54;4.60;99.90
1137;DHT22;557;48.466;7.950;2024-01-30T00:31:22;4.50;99.90
1137;DHT22;557;48.466;7.950;2024-01-30T00:33:49;4.50;99.90
1137;DHT22;557;48.466;7.950;2024-01-30T00:36:16;4.50;99.90
1137;DHT22;557;48.466;7.950;2024-01-30T00:38:43;4.50;99.90
1137;DHT22;557;48.466;7.950;2024-01-30T00:41:10;4.50;99.90
1137;DHT22;557;48.466;7.950;2024-01-30T00:43:37;4.50;99.90
1137;DHT22;557;48.466;7.950;2024-01-30T00:46:04;4.50;99.90
1137;DHT22;557;48.466;7.950;2024-01-30T00:48:32;4.60;99.90
1137;DHT22;557;48.466;7.950;2024-01-30T00:50:59;4.60;99.90
1137;DHT22;557;48.466;7.950;2024-01-30T00:53:26;4.60;99.90
1137;DHT22;557;48.466;7.950;2024-01-30T00:55:53;4.60;99.90
1137;DHT22;557;48.466;7.950;2024-01-30T00:58:20;4.60;99.90
1137;DHT22;557;48.466;7.950;2024-01-30T01:00:46;4.60;99.90
1137;DHT22;557;48.466;7.950;2024-01-30T01:03:13;4.70;99.90
1137;DHT22;557;48.466;7.950;2024-01-30T01:05:41;4.60;99.90
1137;DHT22;557;48.466;7.950;2024-01-30T01:08:08;4.60;99.90
1137;DHT22;557;48.466;7.950;2024-01-30T01:10:35;4.60;99.90
1137;DHT22;557;48.466;7.950;2024-01-30T01:13:02;4.60;99.90
1137;DHT22;557;48.466;7.950;2024-01-30T01:15:29;4.60;99.90
1137;DHT22;557;48.466;7.950;2024-01-30T01:17:56;4.60;99.90
1137;DHT22;557;48.466;7.950;2024-01-30T01:20:23;4.50;99.90
1137;DHT22;557;48.466;7.950;2024-01-30T01:22:51;4.50;99.90
1137;DHT22;557;48.466;7.950;2024-01-30T01:25:19;4.40;99.90
1137;DHT22;557;48.466;7.950;2024-01-30T01:27:46;4.40;99.90
1137;DHT22;557;48.466;7.950;2024-01-30T01:30:18;4.30;99.90
1137;DHT22;557;48.466;7.950;2024-01-30T01:32:48;4.30;99.90
1137;DHT22;557;48.466;7.950;2024-01-30T01:35:21;4.20;99.90
1137;DHT22;557;48.466;7.950;2024-01-30T01:37:48;4.10;99.90
1137;DHT22;557;48.466;7.950;2024-01-30T01:40:22;4.00;99.90
1137;DHT22;557;48.466;7.950;2024-01-30T01:42:50;4.00;99.90
1137;DHT22;557;48.466;7.950;2024-01-30T01:45:17;3.90;99.90
1137;DHT22;557;48.466;7.950;2024-01-30T01:47:44;4.00;99.90
1137;DHT22;557;48.466;7.950;2024-01-30T01:50:14;3.90;99.90
1137;DHT22;557;48.466;7.950;2024-01-30T01:52:45;3.80;99.90
1137;DHT22;557;48.466;7.950;2024-01-30T01:55:13;3.80;99.90
1137;DHT22;557;48.466;7.950;2024-01-30T01:57:42;3.70;99.90
1137;DHT22;557;48.466;7.950;2024-01-30T02:00:10;3.70;99.90
1137;DHT22;557;48.466;7.950;2024-01-30T02:02:37;3.70;99.90
1137;DHT22;557;48.466;7.950;2024-01-30T02:05:06;3.60;99.90
1137;DHT22;557;48.466;7.950;2024-01-30T02:07:33;3.60;99.90
1137;DHT22;557;48.466;7.950;2024-01-30T02:09:59;3.60;99.90
1137;DHT22;557;48.466;7.950;2024-01-30T02:12:26;3.60;99.90
1137;DHT22;557;48.466;7.950;2024-01-30T02:14:55;3.70;99.90
1137;DHT22;557;48.466;7.950;2024-01-30T02:17:22;3.60;99.90
1137;DHT22;557;48.466;7.950;2024-01-30T02:19:49;3.60;99.90
1137;DHT22;557;48.466;7.950;2024-01-30T02:22:17;3.70;99.90
1137;DHT22;557;48.466;7.950;2024-01-30T02:24:44;3.60;99.90
1137;DHT22;557;48.466;7.950;2024-01-30T02:27:11;3.60;99.90
1137;DHT22;557;48.466;7.950;2024-01-30T02:29:37;3.50;99.90
1137;DHT22;557;48.466;7.950;2024-01-30T02:32:05;3.40;99.90
1137;DHT22;557;48.466;7.950;2024-01-30T02:34:33;3.40;99.90
1137;DHT22;557;48.466;7.950;2024-01-30T02:37:00;3.30;99.90
1137;DHT22;557;48.466;7.950;2024-01-30T02:39:28;3.30;99.90
1137;DHT22;557;48.466;7.950;2024-01-30T02:41:55;3.20;99.90
1137;DHT22;557;48.466;7.950;2024-01-30T02:44:22;3.20;99.90
1137;DHT22;557;48.466;7.950;2024-01-30T02:46:49;3.20;99.90
1137;DHT22;557;48.466;7.950;2024-01-30T02:49:16;3.20;99.90
1137;DHT22;557;48.466;7.950;2024-01-30T02:51:43;3.20;99.90
1137;DHT22;557;48.466;7.950;2024-01-30T02:54:10;3.20;99.90
1137;DHT22;557;48.466;7.950;2024-01-30T02:56:38;3.30;99.90
1137;DHT22;557;48.466;7.950;2024-01-30T02:59:05;3.40;99.90
1137;DHT22;557;48.466;7.950;2024-01-30T03:01:32;3.40;99.90
1137;DHT22;557;48.466;7.950;2024-01-30T03:03:59;3.40;99.90
1137;DHT22;557;48.466;7.950;2024-01-30T03:06:25;3.50;99.90
1137;DHT22;557;48.466;7.950;2024-01-30T03:08:52;3.50;99.90
1137;DHT22;557;48.466;7.950;2024-01-30T03:11:19;3.50;99.90
1137;DHT22;557;48.466;7.950;2024-01-30T03:13:47;3.50;99.90
1137;DHT22;557;48.466;7.950;2024-01-30T03:16:14;3.40;99.90
1137;DHT22;557;48.466;7.950;2024-01-30T03:18:41;3.30;99.90
1137;DHT22;557;48.466;7.950;2024-01-30T03:21:08;3.20;99.90
1137;DHT22;557;48.466;7.950;2024-01-30T03:23:34;3.20;99.90
1137;DHT22;557;48.466;7.950;2024-01-30T03:26:01;3.20;99.90
1137;DHT22;557;48.466;7.950;2024-01-30T03:28:30;3.20;99.90
1137;DHT22;557;48.466;7.950;2024-01-30T03:30:58;3.20;99.90
1137;DHT22;557;48.466;7.950;2024-01-30T03:33:25;3.20;99.90
1137;DHT22;557;48.466;7.950;2024-01-30T03:35:53;3.20;99.90
1137;DHT22;557;48.466;7.950;2024-01-30T03:38:20;3.20;99.90
1137;DHT22;557;48.466;7.950;2024-01-30T03:40:47;3.20;99.90
1137;DHT22;557;48.466;7.950;2024-01-30T03:43:14;3.20;99.90
1137;DHT22;557;48.466;7.950;2024-01-30T03:45:41;3.20;99.90
1137;DHT22;557;48.466;7.950;2024-01-30T03:48:09;3.20;99.90
1137;DHT22;557;48.466;7.950;2024-01-30T03:50:36;3.20;99.90
1137;DHT22;557;48.466;7.950;2024-01-30T03:53:03;3.30;99.90
1137;DHT22;557;48.466;7.950;2024-01-30T03:55:30;3.30;99.90
1137;DHT22;557;48.466;7.950;2024-01-30T03:57:57;3.30;99.90
1137;DHT22;557;48.466;7.950;2024-01-30T04:00:24;3.30;99.90
1137;DHT22;557;48.466;7.950;2024-01-30T04:02:50;3.20;99.90
1137;DHT22;557;48.466;7.950;2024-01-30T04:05:19;3.20;99.90
1137;DHT22;557;48.466;7.950;2024-01-30T04:07:45;3.20;99.90
1137;DHT22;557;48.466;7.950;2024-01-30T04:10:12;3.20;99.90
1137;DHT22;557;48.466;7.950;2024-01-30T04:12:39;3.20;99.90
1137;DHT22;557;48.466;7.950;2024-01-30T04:15:06;3.20;99.90
1137;DHT22;557;48.466;7.950;2024-01-30T04:17:33;3.10;99.90
1137;DHT22;557;48.466;7.950;2024-01-30T04:20:00;3.10;99.90
1137;DHT22;557;48.466;7.950;2024-01-30T04:22:28;3.10;99.90
1137;DHT22;557;48.466;7.950;2024-01-30T04:24:55;3.00;99.90
1137;DHT22;557;48.466;7.950;2024-01-30T04:27:22;3.10;99.90
1137;DHT22;557;48.466;7.950;2024-01-30T04:29:49;3.10;99.90
1137;DHT22;557;48.466;7.950;2024-01-30T04:32:15;3.10;99.90
1137;DHT22;557;48.466;7.950;2024-01-30T04:34:42;3.20;99.90
1137;DHT22;557;48.466;7.950;2024-01-30T04:37:10;3.30;99.90
1137;DHT22;557;48.466;7.950;2024-01-30T04:39:38;3.30;99.90
1137;DHT22;557;48.466;7.950;2024-01-30T04:42:05;3.30;99.90
1137;DHT22;557;48.466;7.950;2024-01-30T04:44:32;3.30;99.90
1137;DHT22;557;48.466;7.950;2024-01-30T04:46:59;3.40;99.90
1137;DHT22;557;48.466;7.950;2024-01-30T04:49:27;3.40;99.90
1137;DHT22;557;48.466;7.950;2024-01-30T04:51:54;3.40;99.90
1137;DHT22;557;48.466;7.950;2024-01-30T04:54:21;3.40;99.90
1137;DHT22;557;48.466;7.950;2024-01-30T04:56:49;3.40;99.90
1137;DHT22;557;48.466;7.950;2024-01-30T04:59:16;3.40;99.90
1137;DHT22;557;48.466;7.950;2024-01-30T05:01:43;3.40;99.90
1137;DHT22;557;48.466;7.950;2024-01-30T05:04:10;3.50;99.90
1137;DHT22;557;48.466;7.950;2024-01-30T05:06:37;3.50;99.90
1137;DHT22;557;48.466;7.950;2024-01-30T05:09:04;3.50;99.90
1137;DHT22;557;48.466;7.950;2024-01-30T05:11:30;3.60;99.90
1137;DHT22;557;48.466;7.950;2024-01-30T05:13:59;3.60;99.90
1137;DHT22;557;48.466;7.950;2024-01-30T05:16:25;3.60;99.90
1137;DHT22;557;48.466;7.950;2024-01-30T05:18:52;3.60;99.90
1137;DHT22;557;48.466;7.950;2024-01-30T05:21:19;3.60;99.90
1137;DHT22;557;48.466;7.950;2024-01-30T05:23:46;3.50;99.90
1137;DHT22;557;48.466;7.950;2024-01-30T05:26:13;3.50;99.90
1137;DHT22;557;48.466;7.950;2024-01-30T05:28:40;3.40;99.90
1137;DHT22;557;48.466;7.950;2024-01-30T05:31:08;3.40;99.90
1137;DHT22;557;48.466;7.950;2024-01-30T05:33:35;3.40;99.90
1137;DHT22;557;48.466;7.950;2024-01-30T05:36:02;3.30;99.90
1137;DHT22;557;48.466;7.950;2024-01-30T05:38:29;3.30;99.90
1137;DHT22;557;48.466;7.950;2024-01-30T05:40:57;3.30;99.90
1137;DHT22;557;48.466;7.950;2024-01-30T05:43:24;3.30;99.90
1137;DHT22;557;48.466;7.950;2024-01-30T05:45:52;3.30;99.90
1137;DHT22;557;48.466;7.950;2024-01-30T05:48:20;3.30;99.90
1137;DHT22;557;48.466;7.950;2024-01-30T05:50:47;3.40;99.90
1137;DHT22;557;48.466;7.950;2024-01-30T05:53:14;3.30;99.90
1137;DHT22;557;48.466;7.950;2024-01-30T05:55:41;3.30;99.90
1137;DHT22;557;48.466;7.950;2024-01-30T05:58:07;3.30;99.90
1137;DHT22;557;48.466;7.950;2024-01-30T06:00:34;3.30;99.90
1137;DHT22;557;48.466;7.950;2024-01-30T06:03:01;3.20;99.90
1137;DHT22;557;48.466;7.950;2024-01-30T06:05:29;3.20;99.90
1137;DHT22;557;48.466;7.950;2024-01-30T06:07:56;3.10;99.90
1137;DHT22;557;48.466;7.950;2024-01-30T06:10:23;3.10;99.90
1137;DHT22;557;48.466;7.950;2024-01-30T06:13:09;3.10;99.90
1137;DHT22;557;48.466;7.950;2024-01-30T06:15:36;3.00;99.90
1137;DHT22;557;48.466;7.950;2024-01-30T06:18:03;3.00;99.90
1137;DHT22;557;48.466;7.950;2024-01-30T06:20:50;3.00;99.90
1137;DHT22;557;48.466;7.950;2024-01-30T06:23:17;2.90;99.90
1137;DHT22;557;48.466;7.950;2024-01-30T06:26:02;3.00;99.90
1137;DHT22;557;48.466;7.950;2024-01-30T06:28:29;2.90;99.90
1137;DHT22;557;48.466;7.950;2024-01-30T06:31:15;2.90;99.90
1137;DHT22;557;48.466;7.950;2024-01-30T06:34:01;2.90;99.90
1137;DHT22;557;48.466;7.950;2024-01-30T06:36:47;2.80;99.90
1137;DHT22;557;48.466;7.950;2024-01-30T06:39:14;2.80;99.90
1137;DHT22;557;48.466;7.950;2024-01-30T06:41:41;2.90;99.90
1137;DHT22;557;48.466;7.950;2024-01-30T06:44:27;2.80;99.90
1137;DHT22;557;48.466;7.950;2024-01-30T06:47:13;2.80;99.90
1137;DHT22;557;48.466;7.950;2024-01-30T06:49:40;2.80;99.90
1137;DHT22;557;48.466;7.950;2024-01-30T06:52:10;2.80;99.90
1137;DHT22;557;48.466;7.950;2024-01-30T06:54:37;2.80;99.90
1137;DHT22;557;48.466;7.950;2024-01-30T06:57:23;2.80;99.90
1137;DHT22;557;48.466;7.950;2024-01-30T07:00:11;2.80;99.90
1137;DHT22;557;48.466;7.950;2024-01-30T07:02:39;2.80;99.90
1137;DHT22;557;48.466;7.950;2024-01-30T07:05:06;2.80;99.90
1137;DHT22;557;48.466;7.950;2024-01-30T07:07:35;2.80;99.90
1137;DHT22;557;48.466;7.950;2024-01-30T07:10:02;2.80;99.90
1137;DHT22;557;48.466;7.950;2024-01-30T07:12:31;2.80;99.90
1137;DHT22;557;48.466;7.950;2024-01-30T07:14:58;2.80;99.90
1137;DHT22;557;48.466;7.950;2024-01-30T07:17:25;2.80;99.90
1137;DHT22;557;48.466;7.950;2024-01-30T07:19:52;2.90;99.90
1137;DHT22;557;48.466;7.950;2024-01-30T07:22:18;2.90;99.90
1137;DHT22;557;48.466;7.950;2024-01-30T07:24:47;2.90;99.90
1137;DHT22;557;48.466;7.950;2024-01-30T07:27:15;3.00;99.90
1137;DHT22;557;48.466;7.950;2024-01-30T07:29:43;3.00;99.90
1137;DHT22;557;48.466;7.950;2024-01-30T07:32:10;3.10;99.90
1137;DHT22;557;48.466;7.950;2024-01-30T07:34:37;3.10;99.90
1137;DHT22;557;48.466;7.950;2024-01-30T07:37:04;3.20;99.90
1137;DHT22;557;48.466;7.950;2024-01-30T07:39:33;3.20;99.90
1137;DHT22;557;48.466;7.950;2024-01-30T07:42:02;3.30;99.90
1137;DHT22;557;48.466;7.950;2024-01-30T07:44:29;3.30;99.90
1137;DHT22;557;48.466;7.950;2024-01-30T07:46:56;3.40;99.90
1137;DHT22;557;48.466;7.950;2024-01-30T07:49:22;3.50;99.90
1137;DHT22;557;48.466;7.950;2024-01-30T07:51:49;3.50;99.90
1137;DHT22;557;48.466;7.950;2024-01-30T07:54:16;3.50;99.90
1137;DHT22;557;48.466;7.950;2024-01-30T07:56:43;3.50;99.90
1137;DHT22;557;48.466;7.950;2024-01-30T07:59:11;3.50;99.90
1137;DHT22;557;48.466;7.950;2024-01-30T08:01:38;3.50;99.90
1137;DHT22;557;48.466;7.950;2024-01-30T08:04:05;3.50;99.90
1137;DHT22;557;48.466;7.950;2024-01-30T08:06:32;3.60;99.90
1137;DHT22;557;48.466;7.950;2024-01-30T08:08:59;3.70;99.90
1137;DHT22;557;48.466;7.950;2024-01-30T08:11:26;3.70;99.90
1137;DHT22;557;48.466;7.950;2024-01-30T08:13:55;3.80;99.90
1137;DHT22;557;48.466;7.950;2024-01-30T08:16:23;3.90;99.90
1137;DHT22;557;48.466;7.950;2024-01-30T08:18:50;3.90;99.90
1137;DHT22;557;48.466;7.950;2024-01-30T08:21:18;4.00;99.90
1137;DHT22;557;48.466;7.950;2024-01-30T08:23:45;4.10;99.90
1137;DHT22;557;48.466;7.950;2024-01-30T08:26:12;4.20;99.90
1137;DHT22;557;48.466;7.950;2024-01-30T08:28:39;4.20;99.90
1137;DHT22;557;48.466;7.950;2024-01-30T08:31:06;4.30;99.90
1137;DHT22;557;48.466;7.950;2024-01-30T08:33:34;4.30;99.90
1137;DHT22;557;48.466;7.950;2024-01-30T08:36:01;4.30;99.90
1137;DHT22;557;48.466;7.950;2024-01-30T08:38:27;4.40;99.90
1137;DHT22;557;48.466;7.950;2024-01-30T08:40:55;4.40;99.90
1137;DHT22;557;48.466;7.950;2024-01-30T08:43:21;4.50;99.90
1137;DHT22;557;48.466;7.950;2024-01-30T08:45:48;4.60;99.90
1137;DHT22;557;48.466;7.950;2024-01-30T08:48:15;4.70;99.90
1137;DHT22;557;48.466;7.950;2024-01-30T08:50:44;4.80;99.90
1137;DHT22;557;48.466;7.950;2024-01-30T08:53:11;4.90;99.90
1137;DHT22;557;48.466;7.950;2024-01-30T08:55:38;5.00;99.90
1137;DHT22;557;48.466;7.950;2024-01-30T08:58:05;5.00;99.90
1137;DHT22;557;48.466;7.950;2024-01-30T09:00:32;5.10;99.90
1137;DHT22;557;48.466;7.950;2024-01-30T09:02:59;5.10;99.90
1137;DHT22;557;48.466;7.950;2024-01-30T09:05:26;5.20;99.90
1137;DHT22;557;48.466;7.950;2024-01-30T09:07:54;5.30;99.90
1137;DHT22;557;48.466;7.950;2024-01-30T09:10:21;5.40;99.90
1137;DHT22;557;48.466;7.950;2024-01-30T09:12:48;5.60;99.90
1137;DHT22;557;48.466;7.950;2024-01-30T09:15:15;5.80;99.90
1137;DHT22;557;48.466;7.950;2024-01-30T09:17:42;6.00;99.90
1137;DHT22;557;48.466;7.950;2024-01-30T09:20:10;6.20;99.90
1137;DHT22;557;48.466;7.950;2024-01-30T09:22:37;6.40;99.90
1137;DHT22;557;48.466;7.950;2024-01-30T09:25:05;6.60;99.90
1137;DHT22;557;48.466;7.950;2024-01-30T09:27:32;6.70;99.90
1137;DHT22;557;48.466;7.950;2024-01-30T09:29:59;6.90;99.90
1137;DHT22;557;48.466;7.950;2024-01-30T09:32:26;7.00;99.90
1137;DHT22;557;48.466;7.950;2024-01-30T09:34:53;7.10;99.90
1137;DHT22;557;48.466;7.950;2024-01-30T09:37:19;7.20;99.90
1137;DHT22;557;48.466;7.950;2024-01-30T09:39:46;7.20;99.90
1137;DHT22;557;48.466;7.950;2024-01-30T09:42:20;7.10;99.90
1137;DHT22;557;48.466;7.950;2024-01-30T09:44:51;7.10;99.90
1137;DHT22;557;48.466;7.950;2024-01-30T09:47:20;7.20;99.90
1137;DHT22;557;48.466;7.950;2024-01-30T09:49:46;7.20;99.90
1137;DHT22;557;48.466;7.950;2024-01-30T09:52:14;7.40;99.90
1137;DHT22;557;48.466;7.950;2024-01-30T09:54:42;7.40;99.90
1137;DHT22;557;48.466;7.950;2024-01-30T09:57:09;7.40;99.90
1137;DHT22;557;48.466;7.950;2024-01-30T09:59:39;7.40;99.90
1137;DHT22;557;48.466;7.950;2024-01-30T10:02:07;7.50;99.90
1137;DHT22;557;48.466;7.950;2024-01-30T10:04:34;7.50;99.90
1137;DHT22;557;48.466;7.950;2024-01-30T10:07:02;7.70;99.90
1137;DHT22;557;48.466;7.950;2024-01-30T10:09:32;7.80;99.90
1137;DHT22;557;48.466;7.950;2024-01-30T10:11:59;7.90;99.90
1137;DHT22;557;48.466;7.950;2024-01-30T10:14:26;8.10;99.90
1137;DHT22;557;48.466;7.950;2024-01-30T10:16:55;8.20;99.90
1137;DHT22;557;48.466;7.950;2024-01-30T10:19:22;8.30;99.90
1137;DHT22;557;48.466;7.950;2024-01-30T10:21:49;8.40;99.90
1137;DHT22;557;48.466;7.950;2024-01-30T10:24:16;8.60;99.90
1137;DHT22;557;48.466;7.950;2024-01-30T10:26:43;8.80;99.90
1137;DHT22;557;48.466;7.950;2024-01-30T10:29:10;8.90;99.90
1137;DHT22;557;48.466;7.950;2024-01-30T10:31:37;9.00;99.90
1137;DHT22;557;48.466;7.950;2024-01-30T10:34:06;9.20;99.90
1137;DHT22;557;48.466;7.950;2024-01-30T10:36:37;9.30;99.90
1137;DHT22;557;48.466;7.950;2024-01-30T10:39:06;9.50;99.90
1137;DHT22;557;48.466;7.950;2024-01-30T10:41:43;9.60;99.90
1137;DHT22;557;48.466;7.950;2024-01-30T10:44:11;9.80;99.90
1137;DHT22;557;48.466;7.950;2024-01-30T10:46:39;10.00;99.90
1137;DHT22;557;48.466;7.950;2024-01-30T10:49:10;10.20;99.90
1137;DHT22;557;48.466;7.950;2024-01-30T10:51:39;10.40;99.90
1137;DHT22;557;48.466;7.950;2024-01-30T10:54:07;10.60;99.90
1137;DHT22;557;48.466;7.950;2024-01-30T10:56:35;10.70;99.90
1137;DHT22;557;48.466;7.950;2024-01-30T10:59:02;11.30;99.90
1137;DHT22;557;48.466;7.950;2024-01-30T11:01:29;11.90;99.90
1137;DHT22;557;48.466;7.950;2024-01-30T11:03:56;12.30;99.90
1137;DHT22;557;48.466;7.950;2024-01-30T11:06:25;12.60;99.90
1137;DHT22;557;48.466;7.950;2024-01-30T11:09:02;12.90;99.90
1137;DHT22;557;48.466;7.950;2024-01-30T11:11:50;13.30;99.90
1137;DHT22;557;48.466;7.950;2024-01-30T11:14:23;13.50;99.90
1137;DHT22;557;48.466;7.950;2024-01-30T11:16:50;13.50;99.90
1137;DHT22;557;48.466;7.950;2024-01-30T11:19:22;13.30;99.90
1137;DHT22;557;48.466;7.950;2024-01-30T11:21:52;13.00;99.90
1137;DHT22;557;48.466;7.950;2024-01-30T11:24:20;12.80;99.90
1137;DHT22;557;48.466;7.950;2024-01-30T11:26:48;12.60;99.90
1137;DHT22;557;48.466;7.950;2024-01-30T11:29:17;12.40;99.90
1137;DHT22;557;48.466;7.950;2024-01-30T11:31:52;12.40;99.90
1137;DHT22;557;48.466;7.950;2024-01-30T11:34:19;12.40;99.90
1137;DHT22;557;48.466;7.950;2024-01-30T11:36:53;12.40;99.90
1137;DHT22;557;48.466;7.950;2024-01-30T11:39:25;12.40;99.90
1137;DHT22;557;48.466;7.950;2024-01-30T11:41:52;12.50;99.90
1137;DHT22;557;48.466;7.950;2024-01-30T11:44:19;12.60;99.90
1137;DHT22;557;48.466;7.950;2024-01-30T11:46:47;12.70;99.90
1137;DHT22;557;48.466;7.950;2024-01-30T11:49:15;12.70;99.90
1137;DHT22;557;48.466;7.950;2024-01-30T11:51:42;12.70;99.90
1137;DHT22;557;48.466;7.950;2024-01-30T11:54:11;12.70;99.90
1137;DHT22;557;48.466;7.950;2024-01-30T11:56:38;12.90;99.90
1137;DHT22;557;48.466;7.950;2024-01-30T11:59:05;13.00;99.90
1137;DHT22;557;48.466;7.950;2024-01-30T12:01:32;13.00;99.90
1137;DHT22;557;48.466;7.950;2024-01-30T12:03:59;13.10;99.90
1137;DHT22;557;48.466;7.950;2024-01-30T12:06:26;13.10;99.90
1137;DHT22;557;48.466;7.950;2024-01-30T12:09:01;13.20;99.90
1137;DHT22;557;48.466;7.950;2024-01-30T12:11:31;13.30;99.90
1137;DHT22;557;48.466;7.950;2024-01-30T12:13:58;13.30;99.90
1137;DHT22;557;48.466;7.950;2024-01-30T12:16:25;13.40;99.90
1137;DHT22;557;48.466;7.950;2024-01-30T12:18:59;13.60;99.90
1137;DHT22;557;48.466;7.950;2024-01-30T12:21:29;13.60;99.90
1137;DHT22;557;48.466;7.950;2024-01-30T12:23:56;13.40;99.90
1137;DHT22;557;48.466;7.950;2024-01-30T12:26:23;13.40;99.90
1137;DHT22;557;48.466;7.950;2024-01-30T12:28:54;13.40;99.90
1137;DHT22;557;48.466;7.950;2024-01-30T12:31:26;13.50;99.90
1137;DHT22;557;48.466;7.950;2024-01-30T12:33:53;13.60;99.90
1137;DHT22;557;48.466;7.950;2024-01-30T12:36:21;13.60;99.90
1137;DHT22;557;48.466;7.950;2024-01-30T12:38:48;13.40;99.90
1137;DHT22;557;48.466;7.950;2024-01-30T12:41:15;13.40;99.90
1137;DHT22;557;48.466;7.950;2024-01-30T12:43:42;13.60;99.90
1137;DHT22;557;48.466;7.950;2024-01-30T12:46:10;13.70;99.90
1137;DHT22;557;48.466;7.950;2024-01-30T12:48:37;13.60;99.90
1137;DHT22;557;48.466;7.950;2024-01-30T12:51:05;13.70;99.90
1137;DHT22;557;48.466;7.950;2024-01-30T12:53:31;13.70;99.90
1137;DHT22;557;48.466;7.950;2024-01-30T12:55:58;13.60;99.90
1137;DHT22;557;48.466;7.950;2024-01-30T12:58:25;13.60;99.90
1137;DHT22;557;48.466;7.950;2024-01-30T13:00:53;13.40;99.90
1137;DHT22;557;48.466;7.950;2024-01-30T13:03:22;13.40;99.90
1137;DHT22;557;48.466;7.950;2024-01-30T13:05:49;13.30;99.90
1137;DHT22;557;48.466;7.950;2024-01-30T13:08:16;13.30;99.90
1137;DHT22;557;48.466;7.950;2024-01-30T13:10:43;13.30;99.90
1137;DHT22;557;48.466;7.950;2024-01-30T13:13:10;13.30;99.90
1137;DHT22;557;48.466;7.950;2024-01-30T13:15:37;13.30;99.90
1137;DHT22;557;48.466;7.950;2024-01-30T13:18:04;13.30;99.90
1137;DHT22;557;48.466;7.950;2024-01-30T13:20:32;13.50;99.90
1137;DHT22;557;48.466;7.950;2024-01-30T13:22:59;13.70;99.90
1137;DHT22;557;48.466;7.950;2024-01-30T13:25:26;13.90;99.90
1137;DHT22;557;48.466;7.950;2024-01-30T13:27:53;14.00;99.90
1137;DHT22;557;48.466;7.950;2024-01-30T13:30:20;14.30;99.90
1137;DHT22;557;48.466;7.950;2024-01-30T13:32:47;14.60;99.90
1137;DHT22;557;48.466;7.950;2024-01-30T13:35:14;14.30;99.90
1137;DHT22;557;48.466;7.950;2024-01-30T13:37:42;14.00;99.90
1137;DHT22;557;48.466;7.950;2024-01-30T13:40:09;13.80;99.90
1137;DHT22;557;48.466;7.950;2024-01-30T13:42:37;13.60;99.90
1137;DHT22;557;48.466;7.950;2024-01-30T13:45:05;13.50;99.90
1137;DHT22;557;48.466;7.950;2024-01-30T13:47:32;13.30;99.90
1137;DHT22;557;48.466;7.950;2024-01-30T13:49:59;13.20;99.90
1137;DHT22;557;48.466;7.950;2024-01-30T13:52:26;13.10;99.90
1137;DHT22;557;48.466;7.950;2024-01-30T13:54:55;13.00;99.90
1137;DHT22;557;48.466;7.950;2024-01-30T13:57:22;13.00;99.90
1137;DHT22;557;48.466;7.950;2024-01-30T13:59:49;13.00;99.90
1137;DHT22;557;48.466;7.950;2024-01-30T14:02:16;12.90;99.90
1137;DHT22;557;48.466;7.950;2024-01-30T14:04:43;12.80;99.90
1137;DHT22;557;48.466;7.950;2024-01-30T14:07:10;12.80;99.90
1137;DHT22;557;48.466;7.950;2024-01-30T14:09:37;12.80;99.90
1137;DHT22;557;48.466;7.950;2024-01-30T14:12:05;12.70;99.90
1137;DHT22;557;48.466;7.950;2024-01-30T14:14:32;12.70;99.90
1137;DHT22;557;48.466;7.950;2024-01-30T14:16:59;12.60;99.90
1137;DHT22;557;48.466;7.950;2024-01-30T14:19:26;12.70;99.90
1137;DHT22;557;48.466;7.950;2024-01-30T14:21:53;12.60;99.90
1137;DHT22;557;48.466;7.950;2024-01-30T14:24:19;12.70;99.90
1137;DHT22;557;48.466;7.950;2024-01-30T14:26:47;12.70;99.90
1137;DHT22;557;48.466;7.950;2024-01-30T14:29:15;12.70;99.90
1137;DHT22;557;48.466;7.950;2024-01-30T14:31:43;12.70;99.90
1137;DHT22;557;48.466;7.950;2024-01-30T14:34:10;12.70;99.90
1137;DHT22;557;48.466;7.950;2024-01-30T14:36:38;12.80;99.90
1137;DHT22;557;48.466;7.950;2024-01-30T14:39:05;12.80;99.90
1137;DHT22;557;48.466;7.950;2024-01-30T14:41:32;12.80;99.90
1137;DHT22;557;48.466;7.950;2024-01-30T14:43:59;12.80;99.90
1137;DHT22;557;48.466;7.950;2024-01-30T14:46:27;12.70;99.90
1137;DHT22;557;48.466;7.950;2024-01-30T14:48:55;12.60;99.90
1137;DHT22;557;48.466;7.950;2024-01-30T14:51:23;12.60;99.90
1137;DHT22;557;48.466;7.950;2024-01-30T14:53:50;12.50;99.90
1137;DHT22;557;48.466;7.950;2024-01-30T14:56:17;12.50;99.90
1137;DHT22;557;48.466;7.950;2024-01-30T14:58:46;12.50;99.90
1137;DHT22;557;48.466;7.950;2024-01-30T15:01:14;12.40;99.90
1137;DHT22;557;48.466;7.950;2024-01-30T15:03:42;12.40;99.90
1137;DHT22;557;48.466;7.950;2024-01-30T15:06:09;12.30;99.90
1137;DHT22;557;48.466;7.950;2024-01-30T15:08:36;12.30;99.90
1137;DHT22;557;48.466;7.950;2024-01-30T15:11:03;12.20;99.90
1137;DHT22;557;48.466;7.950;2024-01-30T15:13:30;12.20;99.90
1137;DHT22;557;48.466;7.950;2024-01-30T15:15:57;12.20;1.00
1137;DHT22;557;48.466;7.950;2024-01-30T15:18:24;12.20;1.00
1137;DHT22;557;48.466;7.950;2024-01-30T15:20:52;12.20;1.00
1137;DHT22;557;48.466;7.950;2024-01-30T15:23:19;12.20;1.00
1137;DHT22;557;48.466;7.950;2024-01-30T15:25:46;12.10;1.00
1137;DHT22;557;48.466;7.950;2024-01-30T15:28:13;12.10;1.00
1137;DHT22;557;48.466;7.950;2024-01-30T15:30:40;12.10;1.00
1137;DHT22;557;48.466;7.950;2024-01-30T15:33:09;12.00;1.00
1137;DHT22;557;48.466;7.950;2024-01-30T15:35:37;12.00;1.00
1137;DHT22;557;48.466;7.950;2024-01-30T15:38:08;12.00;1.00
1137;DHT22;557;48.466;7.950;2024-01-30T15:40:35;12.00;1.00
1137;DHT22;557;48.466;7.950;2024-01-30T15:43:02;11.90;1.00
1137;DHT22;557;48.466;7.950;2024-01-30T15:45:29;11.80;1.00
1137;DHT22;557;48.466;7.950;2024-01-30T15:47:57;11.80;1.00
1137;DHT22;557;48.466;7.950;2024-01-30T15:50:24;11.70;1.00
1137;DHT22;557;48.466;7.950;2024-01-30T15:52:51;11.70;1.00
1137;DHT22;557;48.466;7.950;2024-01-30T15:55:19;11.70;1.00
1137;DHT22;557;48.466;7.950;2024-01-30T15:57:46;11.60;1.00
1137;DHT22;557;48.466;7.950;2024-01-30T16:00:14;11.60;1.00
1137;DHT22;557;48.466;7.950;2024-01-30T16:02:41;11.50;1.00
1137;DHT22;557;48.466;7.950;2024-01-30T16:05:09;11.50;30.70
1137;DHT22;557;48.466;7.950;2024-01-30T16:07:35;11.50;18.10
1137;DHT22;557;48.466;7.950;2024-01-30T16:10:04;11.40;73.00
1137;DHT22;557;48.466;7.950;2024-01-30T16:12:34;11.50;59.90
1137;DHT22;557;48.466;7.950;2024-01-30T16:15:01;11.50;2.70
1137;DHT22;557;48.466;7.950;2024-01-30T16:17:28;11.50;1.00
1137;DHT22;557;48.466;7.950;2024-01-30T16:19:56;11.50;1.00
1137;DHT22;557;48.466;7.950;2024-01-30T16:22:23;11.50;1.00
1137;DHT22;557;48.466;7.950;2024-01-30T16:24:49;11.60;1.00
1137;DHT22;557;48.466;7.950;2024-01-30T16:27:16;11.60;1.00
1137;DHT22;557;48.466;7.950;2024-01-30T16:29:44;11.50;33.90
1137;DHT22;557;48.466;7.950;2024-01-30T16:32:11;11.40;99.90
1137;DHT22;557;48.466;7.950;2024-01-30T16:34:40;11.30;99.90